Time;durP1;ratioP1;P1;durP2;ratioP2;P2;SDS_P1;SDS_P2;PMS_P1;PMS_P2;Temp;Humidity;BMP_temperature;BMP_pressure;BME280_temperature;BME280_humidity;BME280_pressure;Samples;Min_cycle;Max_cycle;Signal;HPM_P1;HPM_P2
2021/12/21 00:03:36;;;;;;;16.30;3.70;;;-1.80;99.90;;;;;;10329194;28;20084;-92
2021/12/21 00:08:38;;;;;;;21.60;5.22;;;-1.80;99.90;;;;;;10377958;28;20041;-92
2021/12/21 00:19:43;;;;;;;5.75;1.92;;;-1.90;99.90;;;;;;10375830;28;20491;-92
2021/12/21 00:24:18;;;;;;;9.40;2.60;;;-1.90;99.90;;;;;;10377700;28;20397;-91
2021/12/21 00:29:21;;;;;;;10.63;2.55;;;-1.90;99.90;;;;;;10359682;28;20073;-91
2021/12/21 00:34:25;;;;;;;11.13;3.30;;;-1.90;99.90;;;;;;10342633;28;20130;-91
2021/12/21 00:39:27;;;;;;;6.38;2.00;;;-1.90;99.90;;;;;;10321451;28;20050;-91
2021/12/21 00:44:29;;;;;;;8.57;1.92;;;-2.00;99.90;;;;;;10349418;28;20053;-92
2021/12/21 00:49:31;;;;;;;5.57;2.33;;;-2.10;99.90;;;;;;10372570;28;20061;-92
2021/12/21 00:54:33;;;;;;;5.50;2.05;;;-2.10;99.90;;;;;;10364131;28;20060;-92
2021/12/21 00:59:35;;;;;;;5.57;1.95;;;-2.20;99.90;;;;;;10369049;28;20184;-92
2021/12/21 01:04:42;;;;;;;7.72;2.17;;;-2.20;99.90;;;;;;10361257;28;20149;-92
2021/12/21 01:15:10;;;;;;;6.47;2.70;;;-2.20;99.90;;;;;;10374971;28;20411;-92
2021/12/21 01:20:26;;;;;;;7.35;2.70;;;-2.20;99.90;;;;;;10372281;28;20057;-91
2021/12/21 01:41:55;;;;;;;12.10;2.63;;;-2.20;99.90;;;;;;10342741;28;20046;-92
2021/12/21 01:52:22;;;;;;;9.30;1.83;;;-2.20;99.90;;;;;;10211865;28;20049;-91
2021/12/21 01:57:24;;;;;;;7.50;2.08;;;-2.20;99.90;;;;;;10350938;28;20522;-91
2021/12/21 02:02:27;;;;;;;8.25;2.38;;;-2.20;99.90;;;;;;10280070;28;20129;-91
2021/12/21 02:07:30;;;;;;;10.00;2.25;;;-2.30;99.90;;;;;;10355858;28;20049;-91
2021/12/21 02:12:32;;;;;;;6.93;2.15;;;-2.30;99.90;;;;;;10355750;28;20827;-91
2021/12/21 02:22:49;;;;;;;6.03;2.10;;;-2.40;99.90;;;;;;10339615;28;20050;-91
2021/12/21 02:33:18;;;;;;;8.27;2.40;;;-2.40;99.90;;;;;;10332685;28;20591;-91
2021/12/21 02:38:20;;;;;;;6.90;2.38;;;-2.50;99.90;;;;;;10228727;28;20056;-91
2021/12/21 02:43:22;;;;;;;9.15;2.30;;;-2.50;99.90;;;;;;10370811;28;20049;-92
2021/12/21 02:48:24;;;;;;;9.95;2.50;;;-2.50;99.90;;;;;;10325064;28;20139;-92
2021/12/21 02:53:26;;;;;;;11.60;1.98;;;-2.50;99.90;;;;;;10360477;28;20555;-93
2021/12/21 02:58:28;;;;;;;7.15;1.80;;;-2.50;99.90;;;;;;10339332;28;20495;-92
2021/12/21 03:03:31;;;;;;;6.25;1.92;;;-2.60;99.90;;;;;;10349520;28;20053;-91
2021/12/21 03:08:44;;;;;;;11.18;3.22;;;-2.60;99.90;;;;;;10364440;28;20045;-91
2021/12/21 03:18:59;;;;;;;7.43;2.38;;;-2.60;99.90;;;;;;10278781;28;21229;-92
2021/12/21 03:24:04;;;;;;;10.68;2.58;;;-2.70;99.90;;;;;;10259910;28;20883;-92
2021/12/21 03:29:07;;;;;;;7.65;2.05;;;-2.70;99.90;;;;;;10362012;28;20047;-91
2021/12/21 03:34:09;;;;;;;6.45;2.30;;;-2.80;99.90;;;;;;10297023;28;20689;-92
2021/12/21 03:39:18;;;;;;;7.22;2.28;;;-2.80;99.90;;;;;;10305933;28;20484;-91
2021/12/21 03:44:21;;;;;;;8.18;2.45;;;-2.80;99.90;;;;;;10349615;28;20122;-92
2021/12/21 03:54:39;;;;;;;10.77;2.65;;;-2.80;99.90;;;;;;10366487;28;20149;-92
2021/12/21 03:59:42;;;;;;;5.93;2.45;;;-2.80;99.90;;;;;;10357830;28;20053;-91
2021/12/21 04:04:45;;;;;;;8.38;2.72;;;-2.80;99.90;;;;;;10350460;28;20123;-91
2021/12/21 04:09:50;;;;;;;10.15;2.47;;;-2.80;99.90;;;;;;10355887;28;20077;-92
2021/12/21 04:14:56;;;;;;;7.00;2.33;;;-2.90;99.90;;;;;;10359780;28;20053;-92
2021/12/21 04:19:58;;;;;;;11.02;2.15;;;-2.90;99.90;;;;;;10382710;28;20121;-92
2021/12/21 04:25:00;;;;;;;7.13;2.78;;;-2.80;99.90;;;;;;10352464;28;20050;-92
2021/12/21 04:30:03;;;;;;;9.27;2.28;;;-2.90;99.90;;;;;;10219467;28;20058;-94
2021/12/21 04:35:09;;;;;;;6.38;2.78;;;-2.90;99.90;;;;;;10173224;28;21433;-93
2021/12/21 04:40:16;;;;;;;7.30;1.90;;;-2.90;99.90;;;;;;10275620;28;20563;-93
2021/12/21 04:45:19;;;;;;;8.00;2.60;;;-3.00;99.90;;;;;;10336016;28;20045;-93
2021/12/21 04:50:21;;;;;;;10.90;2.35;;;-3.00;99.90;;;;;;10306347;28;20041;-92
2021/12/21 04:55:23;;;;;;;11.10;3.00;;;-3.10;99.90;;;;;;10328430;28;20092;-92
2021/12/21 05:00:25;;;;;;;8.00;2.60;;;-3.10;99.90;;;;;;10344226;28;20112;-92
2021/12/21 05:05:30;;;;;;;7.38;2.78;;;-3.00;99.90;;;;;;10287770;28;20483;-92
2021/12/21 05:10:37;;;;;;;11.05;3.50;;;-3.10;99.90;;;;;;10338504;28;20504;-93
2021/12/21 05:15:42;;;;;;;9.32;2.83;;;-3.10;99.90;;;;;;10329732;28;20560;-92
2021/12/21 05:20:45;;;;;;;10.77;3.53;;;-3.10;99.90;;;;;;10313997;28;20137;-92
2021/12/21 05:25:47;;;;;;;9.68;2.72;;;-3.10;99.90;;;;;;10279113;28;20151;-93
2021/12/21 05:30:49;;;;;;;6.25;2.83;;;-3.20;99.90;;;;;;10342582;28;20492;-92
2021/12/21 05:35:51;;;;;;;9.50;3.75;;;-3.20;99.90;;;;;;10354939;28;20108;-92
2021/12/21 05:40:54;;;;;;;15.85;4.80;;;-3.20;99.90;;;;;;10352612;28;20411;-91
2021/12/21 05:45:56;;;;;;;10.75;2.63;;;-3.20;99.90;;;;;;10391822;28;20057;-92
2021/12/21 05:50:58;;;;;;;8.52;2.50;;;-3.20;99.90;;;;;;10374561;28;20040;-91
2021/12/21 05:56:00;;;;;;;5.93;2.17;;;-3.20;99.90;;;;;;10377951;28;20034;-91
2021/12/21 06:01:07;;;;;;;6.30;2.45;;;-3.30;99.90;;;;;;10360747;28;20056;-91
2021/12/21 06:06:13;;;;;;;;;;;-3.20;99.90;;;;;;10353857;28;20041;-91
2021/12/21 06:11:16;;;;;;;6.45;1.85;;;-3.20;99.90;;;;;;10370725;28;19931;-94
2021/12/21 06:22:45;;;;;;;7.97;2.88;;;-3.20;99.90;;;;;;10350309;28;20057;-92
2021/12/21 06:26:51;;;;;;;11.15;2.95;;;-3.30;99.90;;;;;;10387646;28;20080;-91
2021/12/21 06:31:54;;;;;;;8.10;2.60;;;-3.30;99.90;;;;;;10371216;28;20049;-89
2021/12/21 06:36:56;;;;;;;7.80;2.50;;;-3.30;99.90;;;;;;10372404;28;20057;-90
2021/12/21 06:41:58;;;;;;;6.25;2.45;;;-3.30;99.90;;;;;;10350249;28;20057;-90
2021/12/21 06:51:08;;;;;;;5.55;2.40;;;-3.30;99.90;;;;;;10368772;28;20041;-88
2021/12/21 06:52:28;;;;;;;4.65;2.20;;;-3.30;99.90;;;;;;10387674;28;20049;-88
2021/12/21 06:57:30;;;;;;;9.25;3.47;;;-3.30;99.90;;;;;;10348522;28;20057;-88
2021/12/21 07:02:32;;;;;;;3.33;2.10;;;-3.30;99.90;;;;;;10352329;28;20045;-88
2021/12/21 07:07:35;;;;;;;7.63;2.30;;;-3.30;99.90;;;;;;10354698;28;20081;-88
2021/12/21 07:22:49;;;;;;;;;;;-3.30;99.90;;;;;;10340657;28;20057;-90
2021/12/21 07:27:52;;;;;;;10.93;3.17;;;-3.30;99.90;;;;;;10355592;28;19976;-90
2021/12/21 07:32:54;;;;;;;9.30;2.90;;;-3.30;99.90;;;;;;10352561;28;20052;-90
2021/12/21 07:37:56;;;;;;;8.38;2.92;;;-3.30;99.90;;;;;;10369690;28;20049;-90
2021/12/21 07:43:00;;;;;;;6.93;2.72;;;-3.30;99.90;;;;;;10364458;28;20077;-90
2021/12/21 07:48:02;;;;;;;10.00;3.35;;;-3.30;99.90;;;;;;10366270;28;20045;-90
2021/12/21 07:53:04;;;;;;;6.60;2.70;;;-3.30;99.90;;;;;;10337357;28;20096;-90
2021/12/21 07:58:06;;;;;;;16.08;5.68;;;-3.30;99.90;;;;;;10350908;28;20053;-90
2021/12/21 08:03:09;;;;;;;9.10;2.88;;;-3.30;99.90;;;;;;10352558;28;20065;-90
2021/12/21 08:08:16;;;;;;;7.45;2.67;;;-3.30;99.90;;;;;;10373979;28;20051;-90
2021/12/21 08:13:22;;;;;;;9.65;2.85;;;-3.20;99.90;;;;;;10359740;28;20065;-90
2021/12/21 08:18:24;;;;;;;11.82;4.30;;;-3.20;99.90;;;;;;10376514;28;20053;-90
2021/12/21 08:23:26;;;;;;;6.25;2.35;;;-3.10;99.90;;;;;;10359573;28;20105;-91
2021/12/21 08:28:28;;;;;;;11.60;3.22;;;-3.10;99.90;;;;;;10362950;28;20057;-90
2021/12/21 08:33:30;;;;;;;10.18;2.92;;;-3.00;99.90;;;;;;10356094;28;20480;-90
2021/12/21 08:38:58;;;;;;;11.02;3.20;;;-2.90;99.90;;;;;;10376884;28;20524;-91
2021/12/21 08:44:00;;;;;;;10.65;3.13;;;-2.80;99.90;;;;;;10367536;28;20396;-90
2021/12/21 08:49:03;;;;;;;11.75;3.47;;;-2.80;99.90;;;;;;10359806;28;20133;-90
2021/12/21 08:54:05;;;;;;;9.90;2.55;;;-2.70;99.90;;;;;;10375493;28;20057;-91
2021/12/21 08:59:08;;;;;;;9.80;2.72;;;-2.60;99.90;;;;;;10344156;28;20131;-90
2021/12/21 09:04:11;;;;;;;14.23;3.63;;;-2.60;99.90;;;;;;10265278;28;20050;-91
2021/12/21 09:09:15;;;;;;;9.43;2.95;;;-2.50;99.90;;;;;;10266578;28;20059;-90
2021/12/21 09:14:18;;;;;;;8.48;3.03;;;-2.40;99.90;;;;;;10315035;28;20060;-90
2021/12/21 09:19:20;;;;;;;19.25;3.42;;;-2.30;99.90;;;;;;10364680;28;20056;-91
2021/12/21 09:24:44;;;;;;;9.50;3.13;;;-2.20;99.90;;;;;;10338379;28;20064;-91
2021/12/21 09:29:47;;;;;;;12.25;4.20;;;-2.10;99.90;;;;;;10294081;28;20041;-91
2021/12/21 09:34:50;;;;;;;9.45;2.92;;;-2.00;99.90;;;;;;10299653;28;20053;-91
2021/12/21 09:39:54;;;;;;;7.45;3.10;;;-1.90;99.90;;;;;;10355285;28;20152;-91
2021/12/21 09:44:58;;;;;;;7.93;3.13;;;-1.80;99.90;;;;;;10367128;28;20053;-91
2021/12/21 09:50:01;;;;;;;10.85;2.95;;;-1.70;99.90;;;;;;10326708;28;20045;-91
2021/12/21 09:55:10;;;;;;;8.68;3.08;;;-1.60;99.90;;;;;;10346195;28;20492;-91
2021/12/21 10:00:32;;;;;;;9.05;3.47;;;-1.50;99.90;;;;;;10352653;28;20053;-91
2021/12/21 10:05:41;;;;;;;10.02;3.03;;;-1.40;99.90;;;;;;10364065;28;21574;-91
2021/12/21 10:10:55;;;;;;;14.88;6.68;;;-1.20;99.90;;;;;;10356829;28;20049;-92
2021/12/21 10:16:00;;;;;;;11.95;4.10;;;-1.10;99.90;;;;;;10370327;28;20137;-92
2021/12/21 10:21:07;;;;;;;7.10;3.22;;;-0.80;99.90;;;;;;10377884;28;20164;-92
2021/12/21 10:26:20;;;;;;;7.85;2.88;;;-0.70;99.90;;;;;;10363270;28;20042;-92
2021/12/21 10:31:25;;;;;;;9.02;3.60;;;-0.70;99.90;;;;;;10360088;28;20057;-93
2021/12/21 10:36:29;;;;;;;8.32;3.88;;;-0.60;99.90;;;;;;10369412;28;20053;-92
2021/12/21 10:41:41;;;;;;;12.70;3.30;;;-0.60;99.90;;;;;;10366528;28;20057;-92
2021/12/21 10:46:46;;;;;;;11.32;3.95;;;-0.40;99.90;;;;;;10364370;28;20531;-91
2021/12/21 10:52:13;;;;;;;11.50;3.92;;;-0.40;99.90;;;;;;10368026;28;20052;-92
2021/12/21 10:57:20;;;;;;;7.40;3.58;;;-0.30;99.90;;;;;;10368844;28;20052;-92
2021/12/21 11:02:32;;;;;;;12.13;3.50;;;-0.20;99.90;;;;;;10358268;28;20045;-92
2021/12/21 11:07:43;;;;;;;15.82;4.45;;;-0.10;99.90;;;;;;10372924;28;20199;-92
2021/12/21 11:12:50;;;;;;;11.23;3.63;;;0.10;99.90;;;;;;10371476;28;20103;-92
2021/12/21 11:17:52;;;;;;;6.13;2.85;;;0.20;99.90;;;;;;10388583;28;20101;-92
2021/12/21 11:22:55;;;;;;;6.38;2.97;;;0.20;99.90;;;;;;10332178;28;20057;-92
2021/12/21 11:27:59;;;;;;;6.30;2.63;;;0.30;99.90;;;;;;10355840;28;20041;-91
2021/12/21 11:33:06;;;;;;;8.65;3.42;;;0.30;99.90;;;;;;10356194;28;20049;-92
2021/12/21 11:38:11;;;;;;;11.23;2.88;;;0.50;99.90;;;;;;10376491;28;20504;-92
2021/12/21 11:43:40;;;;;;;12.27;3.35;;;0.50;99.90;;;;;;10363977;28;20056;-92
2021/12/21 11:49:12;;;;;;;7.63;2.50;;;0.60;99.90;;;;;;10325530;28;20053;-92
2021/12/21 11:54:20;;;;;;;10.77;3.70;;;0.70;99.90;;;;;;10355452;28;20072;-91
2021/12/21 11:59:23;;;;;;;14.57;2.83;;;0.80;99.90;;;;;;10338685;28;20057;-92
2021/12/21 12:04:25;;;;;;;9.75;2.80;;;0.90;99.90;;;;;;10383313;28;20494;-93
2021/12/21 12:09:31;;;;;;;7.80;2.38;;;0.90;99.90;;;;;;10363161;28;20143;-93
2021/12/21 12:14:37;;;;;;;7.45;1.95;;;1.00;99.90;;;;;;10357176;28;20049;-93
2021/12/21 12:19:43;;;;;;;8.38;2.92;;;1.00;99.90;;;;;;10303651;28;20160;-92
2021/12/21 12:24:55;;;;;;;4.05;1.10;;;1.10;99.90;;;;;;10280861;28;20132;-92
2021/12/21 12:30:01;;;;;;;6.30;1.92;;;1.10;99.90;;;;;;10352232;28;20053;-92
2021/12/21 12:35:12;;;;;;;6.85;2.08;;;1.20;99.90;;;;;;10387658;28;20057;-92
2021/12/21 12:40:18;;;;;;;5.63;2.00;;;1.20;99.90;;;;;;10332582;28;20046;-92
2021/12/21 12:45:22;;;;;;;8.05;2.05;;;1.20;99.90;;;;;;10341370;28;20062;-92
2021/12/21 12:50:29;;;;;;;6.90;2.38;;;1.30;99.90;;;;;;10320805;28;20050;-93
2021/12/21 12:55:50;;;;;;;5.50;1.55;;;1.30;99.90;;;;;;10320878;28;20049;-93
2021/12/21 13:01:19;;;;;;;;;;;1.30;99.90;;;;;;10306931;28;20068;-92
2021/12/21 13:06:24;;;;;;;;;;;1.60;99.90;;;;;;10318375;28;19933;-93
2021/12/21 13:11:31;;;;;;;4.68;1.83;;;1.60;99.90;;;;;;10345069;28;19963;-93
2021/12/21 13:16:36;;;;;;;6.83;1.93;;;1.60;99.90;;;;;;10303415;28;20144;-93
2021/12/21 13:21:58;;;;;;;7.68;1.73;;;1.60;99.90;;;;;;10279735;28;20789;-93
2021/12/21 13:27:08;;;;;;;5.20;1.67;;;1.60;99.90;;;;;;10252487;28;20051;-93
2021/12/21 13:32:30;;;;;;;7.82;1.67;;;1.60;99.90;;;;;;10273005;28;20110;-92
2021/12/21 13:37:32;;;;;;;3.88;1.55;;;1.60;99.90;;;;;;10342507;28;20056;-92
2021/12/21 13:42:35;;;;;;;2.80;1.30;;;1.60;99.90;;;;;;10345575;28;20069;-92
2021/12/21 13:47:46;;;;;;;5.72;1.65;;;1.60;99.90;;;;;;10151031;28;20045;-91
2021/12/21 13:53:20;;;;;;;6.60;1.88;;;1.60;99.90;;;;;;10077539;28;20532;-92
2021/12/21 13:59:46;;;;;;;6.05;1.75;;;1.60;99.90;;;;;;9998716;28;20047;-92
2021/12/21 14:06:39;;;;;;;4.20;1.55;;;1.60;99.90;;;;;;9826922;28;20557;-93
2021/12/21 14:19:22;;;;;;;4.90;1.58;;;1.60;99.90;;;;;;10037931;29;20033;-91
2021/12/21 14:24:30;;;;;;;6.53;1.75;;;1.60;99.90;;;;;;10062831;29;20047;-92
2021/12/21 14:29:53;;;;;;;5.72;1.75;;;1.60;99.90;;;;;;9944445;29;20060;-93
2021/12/21 14:35:20;;;;;;;5.65;1.63;;;1.50;99.90;;;;;;9964468;28;20074;-93
2021/12/21 15:00:07;;;;;;;7.50;2.30;;;1.40;99.90;;;;;;10423639;23;20480;-61
2021/12/21 15:05:10;;;;;;;3.75;1.73;;;1.30;99.90;;;;;;10321252;28;20402;-61
2021/12/21 15:10:16;;;;;;;5.32;1.73;;;1.20;99.90;;;;;;10292416;28;20058;-59
2021/12/21 15:15:20;;;;;;;5.55;1.80;;;1.10;99.90;;;;;;10288633;28;20105;-60
2021/12/21 15:20:24;;;;;;;4.80;1.40;;;1.00;99.90;;;;;;10289012;28;20082;-61
2021/12/21 15:25:27;;;;;;;6.40;1.75;;;0.90;99.90;;;;;;10277248;28;20059;-60
2021/12/21 15:30:29;;;;;;;4.57;1.85;;;0.80;99.90;;;;;;10287791;28;20109;-60
2021/12/21 15:35:33;;;;;;;9.15;1.45;;;0.70;99.90;;;;;;10285913;28;20114;-60
2021/12/21 15:40:35;;;;;;;8.05;1.27;;;0.60;99.90;;;;;;10287193;28;20125;-60
2021/12/21 15:45:36;;;;;;;4.07;1.40;;;0.50;99.90;;;;;;10289632;28;20529;-60
2021/12/21 15:50:38;;;;;;;7.28;1.67;;;0.40;99.90;;;;;;10283519;28;20047;-60
2021/12/21 15:55:40;;;;;;;9.57;2.50;;;0.30;99.90;;;;;;10271021;28;20136;-59
2021/12/21 16:00:43;;;;;;;6.50;2.15;;;0.30;99.90;;;;;;10282067;28;20219;-57
2021/12/21 16:05:44;;;;;;;6.03;1.98;;;0.20;99.90;;;;;;10284120;28;20050;-59
2021/12/21 16:10:46;;;;;;;10.68;2.00;;;0.10;99.90;;;;;;10281921;28;20199;-58
2021/12/21 16:15:49;;;;;;;9.43;2.28;;;0.00;99.90;;;;;;10287289;28;20149;-59
2021/12/21 16:20:52;;;;;;;4.65;2.20;;;-0.10;99.90;;;;;;10280755;28;20051;-59
2021/12/21 16:26:13;;;;;;;9.98;3.67;;;-0.20;99.90;;;;;;10286273;28;20054;-57
2021/12/21 16:31:18;;;;;;;7.10;3.20;;;-0.20;99.90;;;;;;10288027;28;20113;-58
2021/12/21 16:36:21;;;;;;;8.25;2.72;;;-0.30;99.90;;;;;;10288006;28;20100;-57
2021/12/21 16:41:23;;;;;;;8.07;2.47;;;-0.30;99.90;;;;;;10290100;28;20066;-57
2021/12/21 16:46:25;;;;;;;5.95;2.22;;;-0.40;99.90;;;;;;10288482;28;20050;-58
2021/12/21 16:51:27;;;;;;;9.27;2.80;;;-0.50;99.90;;;;;;10289747;28;20176;-58
2021/12/21 16:56:29;;;;;;;11.65;3.90;;;-0.60;99.90;;;;;;10290260;28;20047;-57
2021/12/21 17:01:30;;;;;;;10.07;4.60;;;-0.70;99.90;;;;;;10268150;28;20074;-58
2021/12/21 17:06:32;;;;;;;12.40;3.47;;;-0.70;99.90;;;;;;10293311;28;20201;-58
2021/12/21 17:11:36;;;;;;;13.75;2.60;;;-0.80;99.90;;;;;;10290418;28;20476;-58
2021/12/21 17:16:37;;;;;;;8.05;2.60;;;-0.80;99.90;;;;;;10293569;28;20318;-59
2021/12/21 17:21:40;;;;;;;7.15;3.05;;;-0.90;99.90;;;;;;10293768;28;20692;-58
2021/12/21 17:26:41;;;;;;;9.13;2.80;;;-1.00;99.90;;;;;;10290613;28;20082;-58
2021/12/21 17:31:43;;;;;;;13.65;3.22;;;-1.00;99.90;;;;;;10288288;28;20078;-58
2021/12/21 17:36:45;;;;;;;9.60;3.78;;;-1.00;99.90;;;;;;10289783;28;20532;-58
2021/12/21 17:41:47;;;;;;;16.88;5.00;;;-1.20;99.90;;;;;;10287522;28;20105;-60
2021/12/21 17:46:49;;;;;;;15.93;4.45;;;-1.30;99.90;;;;;;10279594;28;20157;-59
2021/12/21 17:51:50;;;;;;;10.77;3.80;;;-1.40;99.90;;;;;;10288535;28;20456;-58
2021/12/21 17:56:52;;;;;;;6.95;2.08;;;-1.50;99.90;;;;;;10287814;28;20109;-58
2021/12/21 18:01:54;;;;;;;5.53;2.45;;;-1.50;99.90;;;;;;10285005;28;20469;-58
2021/12/21 18:06:55;;;;;;;9.55;2.53;;;-1.60;99.90;;;;;;10288123;28;20137;-58
2021/12/21 18:11:57;;;;;;;13.77;3.38;;;-1.70;99.90;;;;;;10288019;28;20129;-58
2021/12/21 18:17:01;;;;;;;12.48;4.40;;;-1.70;99.90;;;;;;10287696;28;20401;-58
2021/12/21 18:22:09;;;;;;;9.68;3.47;;;-1.70;99.90;;;;;;10285907;28;20050;-57
2021/12/21 18:27:13;;;;;;;10.18;4.22;;;-1.80;99.90;;;;;;10289503;28;20058;-58
2021/12/21 18:32:15;;;;;;;13.55;4.63;;;-1.80;99.90;;;;;;10291939;28;20046;-58
2021/12/21 18:37:18;;;;;;;71.28;26.27;;;-1.80;99.90;;;;;;10281571;28;20501;-58
2021/12/21 18:42:19;;;;;;;131.50;48.78;;;-1.90;99.90;;;;;;10280393;28;20050;-59
2021/12/21 18:47:21;;;;;;;35.20;15.65;;;-1.90;99.90;;;;;;10288475;28;20125;-58
2021/12/21 18:52:23;;;;;;;41.70;13.20;;;-2.00;99.90;;;;;;10285758;28;20046;-59
2021/12/21 18:57:24;;;;;;;35.42;11.52;;;-2.00;99.90;;;;;;10288779;28;20509;-60
2021/12/21 19:02:26;;;;;;;26.45;8.98;;;-1.90;99.90;;;;;;10282339;28;20074;-62
2021/12/21 19:07:28;;;;;;;15.02;5.15;;;-1.90;99.90;;;;;;10291077;28;20110;-62
2021/12/21 19:12:29;;;;;;;13.70;5.40;;;-1.90;99.90;;;;;;10283411;28;20093;-60
2021/12/21 19:17:31;;;;;;;14.65;5.00;;;-1.90;99.90;;;;;;10285256;28;20468;-58
2021/12/21 19:23:00;;;;;;;12.05;4.60;;;-1.90;99.90;;;;;;10284872;28;20479;-59
2021/12/21 19:28:02;;;;;;;15.18;4.75;;;-1.90;99.90;;;;;;10285328;28;20057;-59
2021/12/21 19:33:07;;;;;;;14.10;5.70;;;-1.90;99.90;;;;;;10285202;28;20062;-58
2021/12/21 19:38:14;;;;;;;12.13;4.65;;;-2.00;99.90;;;;;;10285837;28;20050;-59
2021/12/21 19:43:16;;;;;;;14.68;5.32;;;-2.00;99.90;;;;;;10289226;28;20058;-59
2021/12/21 19:48:19;;;;;;;15.48;5.20;;;-2.00;99.90;;;;;;10283757;28;20047;-59
2021/12/21 19:53:22;;;;;;;12.65;4.88;;;-2.00;99.90;;;;;;10286825;28;20070;-57
2021/12/21 19:58:24;;;;;;;15.20;5.45;;;-2.10;99.90;;;;;;10287603;28;20490;-59
2021/12/21 20:03:27;;;;;;;27.83;8.60;;;-2.20;99.90;;;;;;10299776;28;20073;-58
2021/12/21 20:08:31;;;;;;;19.08;9.30;;;-2.20;99.90;;;;;;10290080;28;20109;-59
2021/12/21 20:13:33;;;;;;;40.47;16.33;;;-2.30;99.90;;;;;;10293124;28;20085;-61
2021/12/21 20:18:36;;;;;;;19.98;10.25;;;-2.40;99.90;;;;;;10302549;28;20081;-59
2021/12/21 20:23:38;;;;;;;17.23;7.18;;;-2.30;99.90;;;;;;10293384;28;20054;-58
2021/12/21 20:28:41;;;;;;;12.63;6.47;;;-2.30;99.90;;;;;;10295726;28;20062;-59
2021/12/21 20:33:43;;;;;;;16.65;6.00;;;-2.40;99.90;;;;;;10288986;28;20082;-61
2021/12/21 20:38:44;;;;;;;16.42;7.45;;;-2.40;99.90;;;;;;10288976;28;20082;-59
2021/12/21 20:43:46;;;;;;;36.45;10.93;;;-2.50;99.90;;;;;;10285451;28;20053;-58
2021/12/21 20:48:50;;;;;;;24.75;7.05;;;-2.60;99.90;;;;;;10289169;28;20110;-59
2021/12/21 20:53:53;;;;;;;11.15;5.07;;;-2.60;99.90;;;;;;10295160;28;20070;-58
2021/12/21 20:58:54;;;;;;;12.63;3.70;;;-2.60;99.90;;;;;;10288555;28;20086;-58
2021/12/21 21:03:56;;;;;;;17.73;7.43;;;-2.70;99.90;;;;;;10293132;28;20106;-61
2021/12/21 21:09:00;;;;;;;10.50;5.60;;;-2.70;99.90;;;;;;10275851;28;20493;-59
2021/12/21 21:14:02;;;;;;;15.10;6.72;;;-2.70;99.90;;;;;;10286864;28;20050;-61
2021/12/21 21:19:04;;;;;;;14.60;5.93;;;-2.80;99.90;;;;;;10288133;28;20043;-60
2021/12/21 21:24:06;;;;;;;17.88;6.57;;;-2.80;99.90;;;;;;10285596;28;23279;-59
2021/12/21 21:29:08;;;;;;;22.92;8.85;;;-2.90;99.90;;;;;;10294952;28;20046;-60
2021/12/21 21:34:10;;;;;;;20.63;8.50;;;-2.90;99.90;;;;;;10292122;28;20050;-59
2021/12/21 21:39:13;;;;;;;20.05;7.05;;;-3.00;99.90;;;;;;10289327;28;20066;-59
2021/12/21 21:44:15;;;;;;;18.55;6.85;;;-3.00;99.90;;;;;;10285555;28;20071;-59
2021/12/21 21:49:18;;;;;;;14.48;4.97;;;-3.00;99.90;;;;;;10285138;28;20070;-59
2021/12/21 21:54:20;;;;;;;41.10;13.77;;;-3.10;99.90;;;;;;10288500;28;20572;-59
2021/12/21 21:59:22;;;;;;;19.27;7.85;;;-3.10;99.90;;;;;;10288119;28;20070;-59
2021/12/21 22:04:25;;;;;;;23.30;9.02;;;-3.10;99.90;;;;;;10287532;28;20049;-59
2021/12/21 22:09:28;;;;;;;14.98;6.15;;;-3.20;99.90;;;;;;10288739;28;20050;-59
2021/12/21 22:14:29;;;;;;;18.55;6.43;;;-3.20;99.90;;;;;;10285665;28;20046;-60
2021/12/21 22:19:31;;;;;;;16.45;6.15;;;-3.30;99.90;;;;;;10284045;28;20058;-58
2021/12/21 22:24:34;;;;;;;15.27;6.32;;;-3.20;99.90;;;;;;10258536;28;20145;-58
2021/12/21 22:29:35;;;;;;;41.33;14.07;;;-3.30;99.90;;;;;;10286970;28;20054;-60
2021/12/21 22:34:37;;;;;;;49.10;16.52;;;-3.30;99.90;;;;;;10285362;28;20049;-59
2021/12/21 22:39:39;;;;;;;34.28;10.32;;;-3.40;99.90;;;;;;10286036;28;20051;-59
2021/12/21 22:44:40;;;;;;;19.95;6.65;;;-3.40;99.90;;;;;;10290549;28;20050;-58
2021/12/21 22:49:42;;;;;;;16.10;6.40;;;-3.40;99.90;;;;;;10286765;28;20098;-58
2021/12/21 22:54:44;;;;;;;13.43;5.38;;;-3.40;99.90;;;;;;10288848;28;20042;-59
2021/12/21 22:59:46;;;;;;;12.77;5.82;;;-3.50;99.90;;;;;;10286764;28;20059;-59
2021/12/21 23:04:47;;;;;;;19.15;6.22;;;-3.50;99.90;;;;;;10289985;28;20085;-60
2021/12/21 23:09:50;;;;;;;25.58;6.72;;;-3.50;99.90;;;;;;10287269;28;20062;-58
2021/12/21 23:14:54;;;;;;;17.85;6.03;;;-3.60;99.90;;;;;;10283898;28;20114;-58
2021/12/21 23:19:56;;;;;;;12.95;4.45;;;-3.60;99.90;;;;;;10284640;28;20145;-59
2021/12/21 23:24:57;;;;;;;13.35;3.70;;;-3.60;99.90;;;;;;10282057;28;20058;-59
2021/12/21 23:29:59;;;;;;;11.82;4.15;;;-3.60;99.90;;;;;;10284185;28;20117;-61
2021/12/21 23:35:02;;;;;;;15.02;5.07;;;-3.70;99.90;;;;;;10278907;28;20512;-59
2021/12/21 23:40:06;;;;;;;21.88;5.63;;;-3.70;99.90;;;;;;10281458;28;20062;-59
2021/12/21 23:45:08;;;;;;;12.93;4.05;;;-3.70;99.90;;;;;;10287400;28;20082;-60
2021/12/21 23:50:11;;;;;;;11.82;4.80;;;-3.70;99.90;;;;;;10285087;28;20102;-59
2021/12/21 23:55:13;;;;;;;13.45;4.50;;;-3.80;99.90;;;;;;10279541;28;20430;-58
